createdAt,value
2022-10-11T16:01:59.235Z,13.00
2022-10-11T16:03:31.521Z,9.60
2022-10-11T16:05:03.359Z,12.40
2022-10-11T16:06:35.020Z,12.00
2022-10-11T16:08:06.863Z,27.20
2022-10-11T16:09:38.618Z,16.20
2022-10-11T16:11:11.346Z,18.40
2022-10-11T16:12:43.022Z,20.40
2022-10-11T16:14:14.710Z,25.00
2022-10-11T16:15:46.812Z,27.80
2022-10-11T16:17:18.588Z,34.40
2022-10-11T16:18:50.757Z,35.00
2022-10-11T16:20:24.650Z,42.75
2022-10-11T16:21:56.422Z,46.75
2022-10-11T16:23:28.107Z,54.50
2022-10-11T16:25:00.772Z,56.25
2022-10-11T16:26:32.569Z,57.25
2022-10-11T16:28:04.428Z,57.50
2022-10-11T16:29:36.791Z,61.25
2022-10-11T16:31:13.275Z,63.50
2022-10-11T16:32:45.150Z,68.75
2022-10-11T16:34:17.016Z,71.20
2022-10-11T16:35:48.780Z,74.60
2022-10-11T16:37:20.434Z,78.25
2022-10-11T16:38:52.150Z,90.25
2022-10-11T16:40:26.018Z,92.50
2022-10-11T16:41:57.703Z,99.75
2022-10-11T16:43:29.438Z,95.50
2022-10-11T16:45:01.208Z,99.00
2022-10-11T16:46:33.175Z,96.00
2022-10-11T16:50:06.783Z,101.50
2022-10-11T16:51:38.493Z,103.25
2022-10-11T16:53:10.157Z,97.75
2022-10-11T16:54:48.150Z,102.00
2022-10-11T16:56:22.512Z,95.75
2022-10-11T16:57:54.291Z,105.25
2022-10-11T16:59:25.976Z,102.25
2022-10-11T17:00:57.722Z,101.75
2022-10-11T17:02:32.475Z,100.50
2022-10-11T17:04:04.588Z,99.50
2022-10-11T17:05:36.772Z,102.75
2022-10-11T17:07:12.395Z,101.50
2022-10-11T17:08:44.087Z,109.00
2022-10-11T17:10:15.762Z,93.25
2022-10-11T17:11:47.437Z,107.00
2022-10-11T17:13:19.122Z,104.50
2022-10-11T17:14:50.991Z,101.00
2022-10-11T17:16:22.802Z,102.00
2022-10-11T17:17:55.740Z,95.75
2022-10-11T17:19:27.483Z,99.50
2022-10-11T17:21:06.868Z,96.50
2022-10-11T17:22:38.638Z,97.75
2022-10-11T17:24:10.381Z,97.00
2022-10-11T17:25:43.225Z,97.00
2022-10-11T17:27:14.924Z,93.25
2022-10-11T17:28:46.845Z,90.75
2022-10-11T17:30:18.689Z,93.75
2022-10-11T17:31:50.380Z,97.50
2022-10-11T17:33:22.100Z,81.25
2022-10-11T17:34:53.928Z,94.25
2022-10-11T17:36:31.871Z,105.75
2022-10-11T17:38:06.101Z,103.25
2022-10-11T17:39:38.221Z,97.75
2022-10-11T17:41:10.058Z,86.75
2022-10-11T17:42:41.774Z,79.80
2022-10-11T17:44:13.587Z,83.20
2022-10-11T17:45:54.686Z,77.00
2022-10-11T17:47:26.404Z,83.20
2022-10-11T17:48:58.576Z,75.40
2022-10-11T17:50:30.962Z,74.60
2022-10-11T17:52:02.796Z,68.20
2022-10-11T17:53:34.510Z,68.20
2022-10-11T17:55:06.366Z,72.00
2022-10-11T17:56:38.361Z,80.40
2022-10-11T17:58:10.485Z,88.00
2022-10-11T17:59:42.137Z,84.75
2022-10-11T18:01:15.881Z,82.25
2022-10-11T18:02:47.642Z,79.00
2022-10-11T18:04:20.144Z,82.50
2022-10-11T18:05:51.843Z,87.25
2022-10-11T18:07:24.216Z,91.00
2022-10-11T18:08:57.220Z,92.50
2022-10-11T18:10:29.765Z,80.25
2022-10-11T18:12:01.794Z,88.00
2022-10-11T18:13:33.451Z,91.25
2022-10-11T18:15:05.486Z,93.50
2022-10-11T18:16:37.457Z,107.25
2022-10-11T18:18:11.687Z,113.25
2022-10-11T18:19:43.354Z,113.00
2022-10-11T18:21:16.151Z,108.75
2022-10-11T18:22:47.812Z,114.00
2022-10-11T18:24:19.459Z,111.25
2022-10-11T18:25:51.126Z,116.50
2022-10-11T18:27:22.875Z,112.25
2022-10-11T18:28:54.722Z,111.25
2022-10-11T18:30:26.442Z,106.25
2022-10-11T18:31:58.131Z,114.75
2022-10-11T18:33:29.866Z,117.50
2022-10-11T18:35:01.621Z,115.25
2022-10-11T18:36:33.431Z,112.00
2022-10-11T18:38:05.209Z,142.33
2022-10-11T18:39:36.860Z,121.00
2022-10-11T18:41:09.851Z,111.00
2022-10-11T18:42:41.550Z,125.00
2022-10-11T18:44:14.665Z,127.25
2022-10-11T18:45:46.344Z,123.50
2022-10-11T18:47:18.217Z,169.50
2022-10-11T18:48:50.983Z,118.75
2022-10-11T18:50:22.705Z,131.00
2022-10-11T18:51:54.356Z,128.50
2022-10-11T18:53:26.081Z,129.50
2022-10-11T18:54:58.595Z,126.00
2022-10-11T18:56:31.162Z,122.00
2022-10-11T18:58:02.997Z,124.50
2022-10-11T18:59:34.867Z,127.50
2022-10-11T19:01:16.066Z,126.50
2022-10-11T19:02:47.861Z,121.75
2022-10-11T19:04:19.694Z,121.75
2022-10-11T19:05:51.431Z,118.25
2022-10-11T19:07:23.757Z,118.50
2022-10-11T19:08:59.286Z,119.25
2022-10-11T19:10:31.823Z,120.00
2022-10-11T19:12:04.486Z,111.00
2022-10-11T19:13:36.159Z,156.00
2022-10-11T19:15:08.362Z,150.33
2022-10-11T19:16:42.239Z,145.33
2022-10-11T19:18:15.956Z,142.00
2022-10-11T19:19:51.450Z,134.67
2022-10-11T19:21:23.281Z,120.25
2022-10-11T19:22:54.955Z,121.00
2022-10-11T19:24:27.957Z,120.25
2022-10-11T19:26:02.025Z,108.50
2022-10-11T19:27:34.900Z,110.75
2022-10-11T19:29:14.975Z,104.00
2022-10-11T19:30:47.065Z,105.75
2022-10-11T19:32:20.293Z,98.00
2022-10-11T19:33:52.125Z,87.75
2022-10-11T19:35:24.826Z,83.75
2022-10-11T19:36:56.676Z,84.75
2022-10-11T19:38:32.018Z,78.25
2022-10-11T19:40:04.081Z,74.80
2022-10-11T19:41:35.758Z,74.20
2022-10-11T19:43:07.493Z,66.20
2022-10-11T19:44:39.623Z,64.00
2022-10-11T19:46:27.337Z,57.75
2022-10-11T19:48:08.262Z,57.50
2022-10-11T19:49:40.304Z,54.75
2022-10-11T19:51:19.770Z,50.25
2022-10-11T19:52:51.809Z,48.25
2022-10-11T19:54:25.373Z,49.50
2022-10-11T19:56:02.364Z,51.25
2022-10-11T19:57:34.866Z,48.00
2022-10-11T19:59:07.140Z,42.50
2022-10-11T20:00:38.994Z,43.00
2022-10-11T20:02:11.992Z,45.75
2022-10-11T20:03:44.359Z,70.75
2022-10-11T20:05:16.110Z,65.00
2022-10-11T20:06:49.692Z,70.80
2022-10-11T20:08:23.344Z,71.20
2022-10-11T20:09:55.193Z,72.25
2022-10-11T20:11:27.006Z,69.00
2022-10-11T20:12:58.653Z,65.75
2022-10-11T20:14:30.345Z,70.80
2022-10-11T20:16:07.255Z,71.25
2022-10-11T20:17:48.282Z,66.50
2022-10-11T20:19:21.482Z,67.60
2022-10-11T20:21:15.306Z,63.25
2022-10-11T20:22:47.068Z,66.20
2022-10-11T20:24:18.755Z,71.80
2022-10-11T20:26:06.956Z,67.60
2022-10-11T20:27:42.418Z,69.40
2022-10-11T20:29:14.131Z,80.60
2022-10-11T20:30:45.968Z,89.00
2022-10-11T20:32:17.980Z,89.50
2022-10-11T20:33:49.662Z,93.25
2022-10-11T20:35:21.428Z,83.50
2022-10-11T20:36:53.650Z,95.00
2022-10-11T20:38:25.371Z,94.00
2022-10-11T20:39:57.207Z,90.25
2022-10-11T20:41:33.710Z,89.00
2022-10-11T20:43:05.433Z,91.50
2022-10-11T20:44:37.135Z,97.25
2022-10-11T20:46:10.955Z,104.50
2022-10-11T20:47:42.629Z,117.00
2022-10-11T20:49:14.431Z,118.75
2022-10-11T20:50:46.057Z,122.50
2022-10-11T20:52:17.774Z,120.75
2022-10-11T20:53:49.592Z,119.00
2022-10-11T20:55:21.344Z,119.50
2022-10-11T20:56:53.058Z,107.75
2022-10-11T20:58:25.845Z,122.00
2022-10-11T20:59:57.547Z,126.25
2022-10-11T21:01:31.239Z,115.25
2022-10-11T21:03:03.019Z,118.00
2022-10-11T21:04:34.795Z,120.25
2022-10-11T21:06:06.663Z,120.75
2022-10-11T21:07:38.432Z,120.50
2022-10-11T21:09:12.565Z,120.75
2022-10-11T21:10:56.260Z,123.75
2022-10-11T21:12:27.967Z,121.00
2022-10-11T21:14:01.373Z,128.67
2022-10-11T21:15:33.221Z,138.00
2022-10-11T21:17:04.967Z,143.00
2022-10-11T21:18:36.742Z,147.00
2022-10-11T21:20:08.942Z,138.00
2022-10-11T21:21:40.589Z,135.00
2022-10-11T21:23:13.691Z,139.00
2022-10-11T21:24:45.399Z,135.00
2022-10-11T21:26:18.392Z,136.67
2022-10-11T21:27:50.139Z,136.00
2022-10-11T21:29:21.847Z,130.33
2022-10-11T21:30:53.555Z,130.75
2022-10-11T21:32:25.345Z,126.67
2022-10-11T21:33:57.104Z,126.67
2022-10-11T21:35:29.261Z,122.75
2022-10-11T21:37:00.932Z,122.00
2022-10-11T21:38:32.766Z,125.75
2022-10-11T21:40:04.848Z,122.50
2022-10-11T21:41:36.535Z,116.00
2022-10-11T21:43:08.287Z,116.75
2022-10-11T21:44:43.105Z,112.75
2022-10-11T21:46:23.749Z,117.00
2022-10-11T21:47:56.695Z,109.50
2022-10-11T21:49:28.476Z,113.00
2022-10-11T21:51:00.227Z,111.50
2022-10-11T21:52:32.196Z,101.50
2022-10-11T21:54:05.251Z,101.75
2022-10-11T21:55:37.197Z,103.75
2022-10-11T21:57:09.022Z,102.00
2022-10-11T21:58:41.242Z,91.75
2022-10-11T22:00:13.755Z,97.50
2022-10-11T22:01:48.670Z,89.75
2022-10-11T22:03:20.583Z,97.50
2022-10-11T22:04:52.227Z,93.75
2022-10-11T22:06:24.052Z,96.00
2022-10-11T22:07:55.825Z,89.50
2022-10-11T22:09:29.719Z,85.00
2022-10-11T22:11:01.608Z,79.50
2022-10-11T22:12:33.566Z,97.50
2022-10-11T22:14:05.544Z,82.75
2022-10-11T22:15:37.356Z,77.50
2022-10-11T22:17:09.142Z,78.40
2022-10-11T22:18:41.410Z,75.80
2022-10-11T22:20:13.111Z,75.00
2022-10-11T22:21:45.419Z,75.40
2022-10-11T22:23:18.220Z,87.25
2022-10-11T22:24:49.927Z,77.60
2022-10-11T22:26:23.492Z,74.20
2022-10-11T22:27:55.150Z,69.00
2022-10-11T22:29:30.499Z,64.00
2022-10-11T22:31:05.642Z,62.00
2022-10-11T22:32:37.622Z,58.00
2022-10-11T22:34:09.474Z,58.25
